Cooper, South Dakota
Current Conditions -  °F | °C
As of 4:55 PM on Sunday 25 Jan 2015 (Local Time) from KPHP Reporting Station
Overcast Overcast  
Wind Chill: 41°   Ceiling: 9000
Heat Index: 44°   Visibility: 10mi
Dew Point: 24°   Wind: 6mph
Humidity: 45%   Direction: 220°SW
Pressure: 29.95"   Gusts: NA
Location:  44.8511°N, 102.128°W
Report Text: KPHP 252355Z AUTO 22005KT 10SM OVC090 07/M04 A2995 RMK AO2 SLP153 T00671044 10094 20056 58013
Loading
Personal Weather Stations






























Interactive Weather Map New forecast layout! Learn more

10-Day Weather Forecast

Advertisements
Track Severe Weather on mobile